Time;durP1;ratioP1;P1;durP2;ratioP2;P2;SDS_P1;SDS_P2;PMS_P1;PMS_P2;Temp;Humidity;BMP_temperature;BMP_pressure;BME280_temperature;BME280_humidity;BME280_pressure;Samples;Min_cycle;Max_cycle;Signal;HPM_P1;HPM_P2
2022/10/18 00:01:52;;;;;;;;;;;;;;;11.45;59.81;101180.25;4344994;32;34819;-91
2022/10/18 00:04:17;;;;;;;;;;;;;;;11.37;59.82;101183.81;4320285;33;27672;-89
2022/10/18 00:06:42;;;;;;;;;;;;;;;11.31;59.81;101180.41;4332879;33;20076;-89
2022/10/18 00:09:08;;;;;;;;;;;;;;;11.52;59.83;101182.75;4332579;33;20002;-89
2022/10/18 00:11:33;;;;;;;;;;;;;;;11.41;59.82;101175.97;4320641;33;20022;-90
2022/10/18 00:13:58;;;;;;;;;;;;;;;11.49;59.81;101176.72;4320782;33;20329;-89
2022/10/18 00:16:23;;;;;;;;;;;;;;;11.32;59.81;101180.38;4332469;33;23685;-88
2022/10/18 00:18:49;;;;;;;;;;;;;;;11.40;59.82;101171.63;4333161;33;20002;-88
2022/10/18 00:21:15;;;;;;;;;;;;;;;11.30;59.81;101171.72;4344457;32;30314;-90
2022/10/18 00:23:40;;;;;;;;;;;;;;;11.22;59.81;101168.34;4344969;33;20043;-91
2022/10/18 00:26:07;;;;;;;;;;;;;;;11.19;59.80;101172.75;4332589;33;19992;-90
2022/10/18 00:28:33;;;;;;;;;;;;;;;11.24;59.80;101165.72;4333503;33;20330;-90
2022/10/18 00:31:18;;;;;;;;;;;;;;;11.13;59.79;101165.87;4358614;32;20674;-91
2022/10/18 00:33:44;;;;;;;;;;;;;;;11.10;59.79;101163.28;4349200;33;20043;-90
2022/10/18 00:36:10;;;;;;;;;;;;;;;10.99;59.79;101159.94;4360722;32;20030;-90
2022/10/18 00:38:35;;;;;;;;;;;;;;;11.05;59.79;101162.47;4349034;33;20348;-89
2022/10/18 00:41:00;;;;;;;;;;;;;;;11.03;59.79;101159.88;4350518;33;20038;-90
2022/10/18 00:43:25;;;;;;;;;;;;;;;11.15;59.81;101164.09;4336397;33;20061;-89
2022/10/18 00:45:51;;;;;;;;;;;;;;;10.97;59.78;101161.72;4351066;32;19976;-90
2022/10/18 00:48:16;;;;;;;;;;;;;;;10.94;59.79;101167.81;4354491;32;20010;-89
2022/10/18 00:50:41;;;;;;;;;;;;;;;10.89;59.79;101158.34;4335765;33;20051;-89
2022/10/18 00:53:08;;;;;;;;;;;;;;;10.87;59.78;101155.72;4324341;33;34371;-89
2022/10/18 00:55:33;;;;;;;;;;;;;;;10.87;59.79;101152.25;4338039;33;19995;-89
2022/10/18 00:57:58;;;;;;;;;;;;;;;10.97;59.79;101148.69;4347747;33;20006;-90
2022/10/18 01:00:23;;;;;;;;;;;;;;;10.88;59.78;101151.38;4347634;33;20325;-90
2022/10/18 01:02:49;;;;;;;;;;;;;;;10.85;59.78;101157.47;4342252;33;25348;-92
2022/10/18 01:05:14;;;;;;;;;;;;;;;10.77;59.78;101154.97;4345506;33;23556;-92
2022/10/18 01:07:40;;;;;;;;;;;;;;;10.81;59.78;101145.37;4336122;33;20015;-91
2022/10/18 01:10:25;;;;;;;;;;;;;;;10.75;59.77;101148.91;4338468;33;19999;-92
2022/10/18 01:12:52;;;;;;;;;;;;;;;10.83;59.78;101145.34;4335666;33;19991;-91
2022/10/18 01:15:27;;;;;;;;;;;;;;;10.67;59.77;101142.94;4349106;32;20346;-89
2022/10/18 01:18:18;;;;;;;;;;;;;;;10.93;59.79;101133.97;4337633;33;19992;-91
2022/10/18 01:20:56;;;;;;;;;;;;;;;10.99;59.79;101131.28;4345458;33;19987;-90
2022/10/18 01:23:35;;;;;;;;;;;;;;;10.94;59.79;101133.09;4335300;33;20058;-91
2022/10/18 01:26:20;;;;;;;;;;;;;;;10.77;59.78;101131.53;4335604;33;20050;-92
2022/10/18 01:28:55;;;;;;;;;;;;;;;10.84;59.79;101128.84;4326086;33;20007;-91
2022/10/18 01:31:21;;;;;;;;;;;;;;;10.95;59.79;101122.66;4343528;33;20041;-91
2022/10/18 01:33:49;;;;;;;;;;;;;;;10.88;59.78;101117.50;4335527;33;20066;-90
2022/10/18 01:36:18;;;;;;;;;;;;;;;10.80;59.78;101119.34;4337989;32;20368;-90
2022/10/18 01:38:44;;;;;;;;;;;;;;;10.64;59.78;101121.22;4347392;33;20072;-91
2022/10/18 01:41:09;;;;;;;;;;;;;;;10.80;59.78;101112.38;4334773;33;19980;-88
2022/10/18 01:43:34;;;;;;;;;;;;;;;10.69;59.78;101109.91;4334805;33;20023;-89
2022/10/18 01:45:59;;;;;;;;;;;;;;;10.69;59.78;101109.91;4334556;33;26947;-91
2022/10/18 01:48:25;;;;;;;;;;;;;;;10.57;59.77;101110.03;4334897;33;19991;-90
2022/10/18 01:50:51;;;;;;;;;;;;;;;10.52;59.76;101106.62;4334944;33;19995;-90
2022/10/18 01:53:34;;;;;;;;;;;;;;;10.64;59.77;101103.88;4335020;33;19975;-89
2022/10/18 01:56:19;;;;;;;;;;;;;;;10.56;59.77;101107.44;4335108;33;19988;-89
2022/10/18 01:59:04;;;;;;;;;;;;;;;10.69;59.77;101101.25;4340718;32;19999;-88
2022/10/18 02:01:32;;;;;;;;;;;;;;;10.60;59.76;101093.50;4347788;33;19983;-89
2022/10/18 02:03:59;;;;;;;;;;;;;;;10.65;59.77;101091.75;4348041;33;19993;-89
2022/10/18 02:06:26;;;;;;;;;;;;;;;10.59;59.76;101083.97;4340250;33;19983;-89
2022/10/18 02:08:53;;;;;;;;;;;;;;;10.57;59.77;101081.37;4342077;33;19996;-89
2022/10/18 02:11:18;;;;;;;;;;;;;;;10.59;59.76;101082.22;4356201;32;19968;-89
2022/10/18 02:13:48;;;;;;;;;;;;;;;10.62;59.76;101076.12;4337871;33;20067;-89
2022/10/18 02:16:14;;;;;;;;;;;;;;;10.56;59.77;101076.19;4347315;33;20294;-89
2022/10/18 02:18:51;;;;;;;;;;;;;;;10.45;59.76;101084.13;4338093;33;20013;-90
2022/10/18 02:21:16;;;;;;;;;;;;;;;10.51;59.76;101083.19;4338340;33;19987;-88
2022/10/18 02:23:42;;;;;;;;;;;;;;;10.44;59.76;101088.47;4322535;33;19975;-88
2022/10/18 02:26:07;;;;;;;;;;;;;;;10.61;59.76;101087.41;4344164;33;19996;-89
2022/10/18 02:28:33;;;;;;;;;;;;;;;10.30;59.74;101085.13;4333978;33;25943;-89
2022/10/18 02:30:58;;;;;;;;;;;;;;;10.49;59.76;101092.78;4334496;32;28357;-89
2022/10/18 02:33:29;;;;;;;;;;;;;;;10.31;59.75;101093.81;4349154;32;19989;-88
2022/10/18 02:35:55;;;;;;;;;;;;;;;10.22;59.74;101096.50;4349183;32;19990;-89
2022/10/18 02:38:21;;;;;;;;;;;;;;;10.25;59.76;101091.28;4349091;32;20010;-89
2022/10/18 02:40:46;;;;;;;;;;;;;;;10.46;59.75;101088.47;4336602;32;20007;-89
2022/10/18 02:43:11;;;;;;;;;;;;;;;10.51;59.76;101098.81;4348623;32;25369;-88
2022/10/18 02:45:36;;;;;;;;;;;;;;;10.53;59.76;101090.13;4335217;32;37308;-89
2022/10/18 02:48:01;;;;;;;;;;;;;;;10.38;59.75;101091.13;4348437;32;30428;-88
2022/10/18 02:50:27;;;;;;;;;;;;;;;10.29;59.75;101092.97;4336171;32;28301;-89
2022/10/18 02:52:52;;;;;;;;;;;;;;;10.16;59.74;101089.56;4336392;32;21557;-88
2022/10/18 02:55:17;;;;;;;;;;;;;;;10.11;59.74;101089.59;4347942;32;33761;-88
2022/10/18 02:57:42;;;;;;;;;;;;;;;10.43;59.76;101093.69;4337471;32;20038;-89
2022/10/18 03:00:08;;;;;;;;;;;;;;;10.16;59.74;101092.16;4337594;32;19979;-89
2022/10/18 03:02:33;;;;;;;;;;;;;;;10.24;59.75;101085.19;4337373;32;19970;-89
2022/10/18 03:04:58;;;;;;;;;;;;;;;10.09;59.73;101093.09;4350051;32;20013;-90
2022/10/18 03:07:23;;;;;;;;;;;;;;;10.16;59.75;101095.63;4362903;32;27904;-90
2022/10/18 03:09:49;;;;;;;;;;;;;;;10.24;59.75;101090.41;4349456;32;25908;-88
2022/10/18 03:12:14;;;;;;;;;;;;;;;10.39;59.75;101091.97;4344276;32;28582;-90
2022/10/18 03:14:39;;;;;;;;;;;;;;;10.22;59.75;101091.31;4334150;33;20285;-90
2022/10/18 03:17:05;;;;;;;;;;;;;;;10.21;59.74;101100.00;4348331;32;20036;-90
2022/10/18 03:19:30;;;;;;;;;;;;;;;10.24;59.74;101097.34;4335830;33;20001;-91
2022/10/18 03:21:55;;;;;;;;;;;;;;;10.18;59.75;101102.59;4322775;33;19990;-91
2022/10/18 03:24:20;;;;;;;;;;;;;;;10.03;59.74;101095.75;4347799;33;20358;-90
2022/10/18 03:26:46;;;;;;;;;;;;;;;10.08;59.73;101105.25;4347372;33;29673;-90
2022/10/18 03:29:11;;;;;;;;;;;;;;;10.05;59.74;101105.28;4336197;33;20055;-90
2022/10/18 03:31:36;;;;;;;;;;;;;;;10.12;59.74;101106.94;4323389;33;20072;-91
2022/10/18 03:34:01;;;;;;;;;;;;;;;10.17;59.75;101101.69;4338677;33;20003;-90
2022/10/18 03:36:27;;;;;;;;;;;;;;;10.22;59.74;101106.91;4344607;33;34892;-90
2022/10/18 03:38:52;;;;;;;;;;;;;;;10.15;59.74;101100.84;4336362;33;19980;-88
2022/10/18 03:41:17;;;;;;;;;;;;;;;10.09;59.73;101103.50;4322553;33;19980;-88
2022/10/18 03:43:42;;;;;;;;;;;;;;;10.00;59.73;101108.81;4334893;33;19987;-88
2022/10/18 03:46:08;;;;;;;;;;;;;;;10.22;59.75;101107.78;4322199;33;20018;-88
2022/10/18 03:48:33;;;;;;;;;;;;;;;10.04;59.74;101108.75;4334623;33;20310;-89
2022/10/18 03:50:58;;;;;;;;;;;;;;;10.14;59.74;101107.78;4321884;33;19987;-90
2022/10/18 03:53:23;;;;;;;;;;;;;;;10.07;59.74;101107.87;4321748;33;30471;-89
2022/10/18 03:55:49;;;;;;;;;;;;;;;10.09;59.74;101114.78;4321726;33;27165;-89
2022/10/18 03:58:14;;;;;;;;;;;;;;;10.15;59.74;101117.31;4323415;33;19983;-90
2022/10/18 04:00:40;;;;;;;;;;;;;;;10.16;59.75;101116.44;4335843;33;29673;-88
2022/10/18 04:03:05;;;;;;;;;;;;;;;10.09;59.75;101117.38;4348392;33;21266;-88
2022/10/18 04:05:30;;;;;;;;;;;;;;;9.75;59.72;101116.78;4336536;33;20261;-89
2022/10/18 04:07:56;;;;;;;;;;;;;;;9.94;59.73;101111.47;4324346;33;19976;-90
2022/10/18 04:10:22;;;;;;;;;;;;;;;9.88;59.73;101111.47;4336580;33;20018;-89
2022/10/18 04:12:47;;;;;;;;;;;;;;;9.87;59.73;101110.63;4324238;33;20014;-90
2022/10/18 04:15:13;;;;;;;;;;;;;;;9.65;59.72;101111.63;4335878;33;27825;-88
2022/10/18 04:17:38;;;;;;;;;;;;;;;9.60;59.72;101110.81;4336020;33;29203;-88
2022/10/18 04:20:03;;;;;;;;;;;;;;;9.58;59.71;101113.41;4336437;33;20309;-88
2022/10/18 04:22:30;;;;;;;;;;;;;;;9.73;59.72;101107.28;4336372;33;19995;-88
2022/10/18 04:24:55;;;;;;;;;;;;;;;9.60;59.71;101105.59;4336603;33;20002;-88
2022/10/18 04:27:21;;;;;;;;;;;;;;;9.82;59.73;101110.66;4337185;33;19979;-88
2022/10/18 04:29:46;;;;;;;;;;;;;;;9.61;59.71;101110.78;4338029;33;19983;-89
2022/10/18 04:32:11;;;;;;;;;;;;;;;9.75;59.72;101103.78;4336102;33;20070;-89
2022/10/18 04:34:36;;;;;;;;;;;;;;;9.64;59.71;101102.13;4336184;33;26254;-88
2022/10/18 04:37:01;;;;;;;;;;;;;;;9.80;59.73;101095.94;4335726;33;31984;-89
2022/10/18 04:39:27;;;;;;;;;;;;;;;9.80;59.73;101095.94;4335662;33;34122;-88
2022/10/18 04:41:52;;;;;;;;;;;;;;;9.60;59.71;101095.22;4336006;33;20015;-87
2022/10/18 04:44:17;;;;;;;;;;;;;;;9.59;59.71;101096.09;4349305;33;33489;-86
2022/10/18 04:46:42;;;;;;;;;;;;;;;9.60;59.71;101096.06;4335712;33;30866;-87
2022/10/18 04:49:07;;;;;;;;;;;;;;;9.67;59.72;101089.94;4336878;33;19994;-87
2022/10/18 04:51:33;;;;;;;;;;;;;;;9.63;59.71;101074.37;4336862;33;19995;-87
2022/10/18 04:53:58;;;;;;;;;;;;;;;9.62;59.71;101076.12;4324989;33;22658;-88
2022/10/18 04:56:23;;;;;;;;;;;;;;;9.65;59.72;101083.03;4337976;33;27742;-87
2022/10/18 04:58:48;;;;;;;;;;;;;;;9.76;59.72;101076.91;4354150;33;37999;-89
2022/10/18 05:01:14;;;;;;;;;;;;;;;9.65;59.72;101081.31;4358156;32;20035;-89
2022/10/18 05:03:39;;;;;;;;;;;;;;;9.73;59.72;101076.06;4337227;33;19983;-88
2022/10/18 05:06:04;;;;;;;;;;;;;;;9.69;59.72;101069.12;4336098;33;19998;-87
2022/10/18 05:08:32;;;;;;;;;;;;;;;9.63;59.71;101077.84;4335569;33;20015;-88
2022/10/18 05:10:58;;;;;;;;;;;;;;;9.64;59.71;101065.72;4336070;33;20059;-88
2022/10/18 05:13:23;;;;;;;;;;;;;;;10.01;59.73;101067.16;4335878;33;20342;-88
2022/10/18 05:15:48;;;;;;;;;;;;;;;9.98;59.73;101076.75;4335141;33;29331;-88
2022/10/18 05:18:13;;;;;;;;;;;;;;;9.97;59.73;101075.00;4335935;33;19976;-88
2022/10/18 05:20:39;;;;;;;;;;;;;;;9.88;59.73;101077.66;4349441;33;19976;-88
2022/10/18 05:23:04;;;;;;;;;;;;;;;9.88;59.73;101080.28;4323619;33;20030;-88
2022/10/18 05:25:29;;;;;;;;;;;;;;;9.88;59.72;101081.13;4334945;33;20314;-91
2022/10/18 05:27:55;;;;;;;;;;;;;;;9.76;59.71;101076.91;4337102;33;33300;-93
2022/10/18 05:30:23;;;;;;;;;;;;;;;9.59;59.71;101083.94;4337373;32;20026;-94
2022/10/18 05:32:48;;;;;;;;;;;;;;;9.71;59.71;101072.62;4336851;33;20109;-93
2022/10/18 05:35:13;;;;;;;;;;;;;;;9.81;59.73;101074.25;4320400;33;19976;-90
2022/10/18 05:37:39;;;;;;;;;;;;;;;9.89;59.73;101075.06;4322483;33;19980;-89
2022/10/18 05:40:04;;;;;;;;;;;;;;;9.76;59.72;101079.50;4320947;33;20007;-85
2022/10/18 05:42:29;;;;;;;;;;;;;;;9.79;59.73;101074.28;4320998;33;19996;-85
2022/10/18 05:44:54;;;;;;;;;;;;;;;9.65;59.72;101077.84;4333931;33;31639;-91
2022/10/18 05:47:20;;;;;;;;;;;;;;;9.69;59.72;101082.13;4321143;33;20031;-91
2022/10/18 05:49:46;;;;;;;;;;;;;;;9.79;59.73;101076.00;4321638;33;20010;-91
2022/10/18 05:52:11;;;;;;;;;;;;;;;9.95;59.73;101072.44;4330854;33;19995;-88
2022/10/18 05:54:37;;;;;;;;;;;;;;;9.80;59.73;101077.75;4334813;33;31580;-88
2022/10/18 05:57:02;;;;;;;;;;;;;;;9.95;59.73;101085.44;4335511;33;20018;-88
2022/10/18 05:59:27;;;;;;;;;;;;;;;9.94;59.73;101085.44;4335323;33;19999;-88
2022/10/18 06:01:52;;;;;;;;;;;;;;;10.09;59.73;101082.69;4349247;33;19991;-88
2022/10/18 06:04:17;;;;;;;;;;;;;;;10.12;59.74;101070.50;4334789;33;25664;-88
2022/10/18 06:06:43;;;;;;;;;;;;;;;10.29;59.75;101069.53;4335766;33;19976;-88
2022/10/18 06:09:08;;;;;;;;;;;;;;;10.37;59.75;101073.78;4335784;33;20325;-88
2022/10/18 06:11:34;;;;;;;;;;;;;;;10.44;59.75;101082.41;4336032;33;20002;-88
2022/10/18 06:14:00;;;;;;;;;;;;;;;10.66;59.77;101072.62;4336077;33;20030;-88
2022/10/18 06:16:26;;;;;;;;;;;;;;;10.82;59.78;101073.31;4336387;33;19976;-88
2022/10/18 06:18:52;;;;;;;;;;;;;;;10.89;59.78;101069.75;4336976;33;20029;-88
2022/10/18 06:21:17;;;;;;;;;;;;;;;10.96;59.79;101071.41;4336348;33;20018;-88
2022/10/18 06:23:43;;;;;;;;;;;;;;;10.96;59.79;101079.22;4359556;32;20031;-88
2022/10/18 06:26:09;;;;;;;;;;;;;;;11.01;59.80;101080.00;4340187;33;19988;-89
2022/10/18 06:28:34;;;;;;;;;;;;;;;11.04;59.79;101080.84;4335204;33;19991;-89
2022/10/18 06:30:59;;;;;;;;;;;;;;;11.27;59.80;101077.94;4335503;33;20009;-88
2022/10/18 06:33:24;;;;;;;;;;;;;;;11.43;59.81;101078.59;4334722;33;23654;-88
2022/10/18 06:36:13;;;;;;;;;;;;;;;11.36;59.80;101077.81;4335412;33;20365;-88
2022/10/18 06:38:38;;;;;;;;;;;;;;;11.51;59.81;101076.72;4335133;33;20672;-89
2022/10/18 06:41:04;;;;;;;;;;;;;;;11.74;59.82;101081.59;4335331;33;19992;-88
2022/10/18 06:43:29;;;;;;;;;;;;;;;11.85;59.84;101077.13;4348879;33;19990;-88
2022/10/18 06:45:54;;;;;;;;;;;;;;;11.99;59.85;101082.09;4334778;33;27384;-88
2022/10/18 06:48:20;;;;;;;;;;;;;;;12.10;59.84;101081.94;4335373;33;19998;-88
2022/10/18 06:50:52;;;;;;;;;;;;;;;12.19;59.85;101081.75;4334848;33;20016;-89
2022/10/18 06:53:17;;;;;;;;;;;;;;;12.37;59.87;101085.81;4335079;33;20396;-88
2022/10/18 06:55:42;;;;;;;;;;;;;;;12.41;59.86;101080.50;4348203;33;27148;-89
2022/10/18 06:58:07;;;;;;;;;;;;;;;12.60;59.88;101084.47;4348266;33;20382;-89
2022/10/18 07:00:32;;;;;;;;;;;;;;;12.90;59.89;101079.53;4334492;33;21912;-88
2022/10/18 07:02:58;;;;;;;;;;;;;;;13.11;59.89;101089.56;4334942;33;20231;-88
2022/10/18 07:05:23;;;;;;;;;;;;;;;13.32;59.91;101083.03;4348131;33;21970;-89
2022/10/18 07:07:48;;;;;;;;;;;;;;;13.58;59.93;101092.06;4348810;33;19979;-89
2022/10/18 07:10:13;;;;;;;;;;;;;;;13.65;59.94;101083.16;4334684;33;23343;-89
2022/10/18 07:12:39;;;;;;;;;;;;;;;13.73;59.93;101083.88;4334621;33;24382;-89
2022/10/18 07:15:04;;;;;;;;;;;;;;;13.93;59.94;101078.97;4335065;33;20289;-89
2022/10/18 07:17:30;;;;;;;;;;;;;;;14.13;59.96;101073.25;4322839;33;20006;-89
2022/10/18 07:19:55;;;;;;;;;;;;;;;14.50;59.98;101067.09;4334987;33;19991;-89
2022/10/18 07:22:20;;;;;;;;;;;;;;;14.51;59.98;101064.44;4348382;33;20023;-88
2022/10/18 07:24:45;;;;;;;;;;;;;;;14.63;59.98;101063.22;4334574;33;25194;-89
2022/10/18 07:27:10;;;;;;;;;;;;;;;14.81;60.00;101056.59;4334919;33;19991;-89
2022/10/18 07:29:39;;;;;;;;;;;;;;;14.86;59.99;101054.69;4334811;33;20322;-89
2022/10/18 07:32:04;;;;;;;;;;;;;;;15.03;60.01;101050.69;4336267;33;19971;-89
2022/10/18 07:34:30;;;;;;;;;;;;;;;14.98;60.00;101042.09;4336087;33;34696;-89
2022/10/18 07:36:55;;;;;;;;;;;;;;;15.23;60.01;101041.38;4336697;33;23088;-89
2022/10/18 07:39:20;;;;;;;;;;;;;;;15.37;60.02;101049.66;4337346;33;20265;-89
2022/10/18 07:41:46;;;;;;;;;;;;;;;15.66;60.04;101046.16;4337876;33;20035;-89
2022/10/18 07:44:11;;;;;;;;;;;;;;;15.77;60.04;101048.44;4338624;33;20316;-89
2022/10/18 07:46:36;;;;;;;;;;;;;;;15.86;60.04;101050.78;4343166;32;25652;-89
2022/10/18 07:49:01;;;;;;;;;;;;;;;15.80;60.05;101049.19;4346250;32;20027;-89
2022/10/18 07:51:27;;;;;;;;;;;;;;;15.82;60.05;101054.37;4350967;33;20327;-89
2022/10/18 07:53:52;;;;;;;;;;;;;;;15.94;60.06;101052.22;4336593;33;19991;-89
2022/10/18 07:56:19;;;;;;;;;;;;;;;16.09;60.06;101050.87;4336637;33;20250;-89
2022/10/18 07:58:44;;;;;;;;;;;;;;;16.10;60.06;101055.22;4336942;33;20401;-89
2022/10/18 08:01:10;;;;;;;;;;;;;;;16.39;60.07;101043.69;4324301;33;20639;-89
2022/10/18 08:03:35;;;;;;;;;;;;;;;16.45;60.08;101038.19;4336612;33;19967;-89
2022/10/18 08:06:00;;;;;;;;;;;;;;;16.51;60.08;101032.72;4336523;33;20014;-89
2022/10/18 08:08:26;;;;;;;;;;;;;;;16.63;60.09;101023.53;4336041;33;22702;-89
2022/10/18 08:10:51;;;;;;;;;;;;;;;16.64;60.09;101030.50;4336133;33;21359;-89
2022/10/18 08:13:16;;;;;;;;;;;;;;;16.64;60.09;101027.88;4336496;33;19983;-89
2022/10/18 08:15:41;;;;;;;;;;;;;;;16.91;60.10;101014.66;4336572;33;20070;-89
2022/10/18 08:18:07;;;;;;;;;;;;;;;17.01;60.11;101008.09;4336383;33;19987;-88
2022/10/18 08:20:32;;;;;;;;;;;;;;;16.99;60.10;101002.06;4336362;33;19979;-89
2022/10/18 08:22:58;;;;;;;;;;;;;;;17.08;60.12;101004.34;4349976;33;20011;-89
2022/10/18 08:25:23;;;;;;;;;;;;;;;17.32;60.13;101007.78;4348596;33;20246;-89
2022/10/18 08:27:48;;;;;;;;;;;;;;;17.42;60.13;101001.22;4335893;33;27747;-89
2022/10/18 08:30:13;;;;;;;;;;;;;;;17.60;60.14;101000.47;4336054;33;20269;-89
2022/10/18 08:32:38;;;;;;;;;;;;;;;17.55;60.15;101006.87;4349747;33;19964;-89
2022/10/18 08:35:04;;;;;;;;;;;;;;;17.63;60.14;101000.34;4349410;33;22331;-89
2022/10/18 08:37:29;;;;;;;;;;;;;;;17.82;60.15;100987.31;4336358;33;19999;-89
2022/10/18 08:39:54;;;;;;;;;;;;;;;17.81;60.15;100993.50;4336308;33;19998;-89
2022/10/18 08:42:32;;;;;;;;;;;;;;;17.99;60.16;100989.25;4336219;33;19983;-90
2022/10/18 08:44:58;;;;;;;;;;;;;;;18.14;60.17;100983.28;4349393;33;19983;-89
2022/10/18 08:47:36;;;;;;;;;;;;;;;18.15;60.17;100984.12;4335865;33;20336;-89
2022/10/18 08:50:13;;;;;;;;;;;;;;;18.21;60.17;100976.81;4349937;33;20006;-89
2022/10/18 08:52:45;;;;;;;;;;;;;;;18.39;60.19;100975.16;4336251;33;20002;-89
2022/10/18 08:55:12;;;;;;;;;;;;;;;18.50;60.20;100972.91;4349962;33;19979;-89
2022/10/18 08:57:37;;;;;;;;;;;;;;;18.36;60.18;100970.88;4349894;33;19991;-89
2022/10/18 09:00:16;;;;;;;;;;;;;;;18.39;60.19;100965.47;4336157;33;22734;-89
2022/10/18 09:03:00;;;;;;;;;;;;;;;18.57;60.19;100965.56;4336888;33;19971;-90
2022/10/18 09:05:31;;;;;;;;;;;;;;;18.78;60.21;100955.84;4337091;33;20051;-89
2022/10/18 09:08:15;;;;;;;;;;;;;;;18.73;60.20;100958.69;4351733;33;19975;-89
2022/10/18 09:10:42;;;;;;;;;;;;;;;18.75;60.20;100958.63;4359995;32;19960;-89
2022/10/18 09:13:26;;;;;;;;;;;;;;;18.90;60.21;100950.81;4341802;33;19980;-89
2022/10/18 09:16:15;;;;;;;;;;;;;;;19.04;60.22;100951.97;4350184;33;20372;-89
2022/10/18 09:18:46;;;;;;;;;;;;;;;19.12;60.22;100950.66;4348462;33;20006;-89
2022/10/18 09:21:14;;;;;;;;;;;;;;;19.49;60.24;100941.81;4349602;33;19972;-89
2022/10/18 09:23:43;;;;;;;;;;;;;;;19.57;60.25;100942.28;4349689;33;19979;-89
2022/10/18 09:26:08;;;;;;;;;;;;;;;19.66;60.25;100941.00;4335937;33;20006;-89
2022/10/18 09:28:42;;;;;;;;;;;;;;;19.79;60.26;100931.50;4349646;33;19979;-89
2022/10/18 09:31:27;;;;;;;;;;;;;;;19.84;60.26;100934.75;4336269;33;20329;-89
2022/10/18 09:33:57;;;;;;;;;;;;;;;20.11;60.28;100928.94;4337871;33;19979;-89
2022/10/18 09:36:23;;;;;;;;;;;;;;;20.06;60.27;100925.69;4336025;33;20442;-89
2022/10/18 09:38:50;;;;;;;;;;;;;;;20.26;60.28;100908.78;4336252;33;19999;-89
2022/10/18 09:41:17;;;;;;;;;;;;;;;20.38;60.29;100916.06;4336019;33;20041;-89
2022/10/18 09:43:59;;;;;;;;;;;;;;;20.59;60.30;100916.72;4335979;33;20087;-89
2022/10/18 09:46:26;;;;;;;;;;;;;;;20.72;60.32;100912.44;4335987;33;19995;-88
2022/10/18 09:48:56;;;;;;;;;;;;;;;20.79;60.32;100908.53;4335968;33;19987;-89
2022/10/18 09:51:22;;;;;;;;;;;;;;;20.77;60.31;100910.41;4335979;33;20470;-90
2022/10/18 09:54:10;;;;;;;;;;;;;;;20.83;60.32;100910.06;4335986;33;19971;-89
2022/10/18 09:56:48;;;;;;;;;;;;;;;21.04;60.33;100898.25;4334851;33;19992;-90
2022/10/18 09:59:37;;;;;;;;;;;;;;;21.13;60.33;100894.25;4335571;33;20004;-89
2022/10/18 10:02:02;;;;;;;;;;;;;;;21.27;60.35;100894.31;4335741;33;20369;-90
2022/10/18 10:04:28;;;;;;;;;;;;;;;21.26;60.35;100899.69;4336092;33;20342;-89
2022/10/18 10:06:53;;;;;;;;;;;;;;;21.48;60.36;100897.50;4349536;33;20306;-90
2022/10/18 10:09:28;;;;;;;;;;;;;;;21.56;60.36;100889.97;4336175;33;19992;-90
2022/10/18 10:11:54;;;;;;;;;;;;;;;21.71;60.37;100877.59;4349668;33;19984;-90
2022/10/18 10:14:26;;;;;;;;;;;;;;;21.55;60.35;100876.81;4349580;33;20047;-89
2022/10/18 10:16:52;;;;;;;;;;;;;;;21.67;60.36;100870.75;4336089;33;19991;-90
2022/10/18 10:19:28;;;;;;;;;;;;;;;21.76;60.37;100876.34;4336201;33;20274;-89
2022/10/18 10:22:01;;;;;;;;;;;;;;;21.97;60.39;100870.69;4336202;33;19987;-90
2022/10/18 10:24:32;;;;;;;;;;;;;;;21.95;60.38;100862.84;4336409;33;20007;-90
2022/10/18 10:26:58;;;;;;;;;;;;;;;21.90;60.38;100864.06;4336566;33;19999;-91
2022/10/18 10:29:46;;;;;;;;;;;;;;;22.04;60.39;100864.13;4336926;33;20367;-89
2022/10/18 10:32:15;;;;;;;;;;;;;;;22.17;60.38;100857.09;4338392;33;19976;-90
2022/10/18 10:34:40;;;;;;;;;;;;;;;22.24;60.39;100852.25;4348605;32;19951;-89
2022/10/18 10:37:25;;;;;;;;;;;;;;;22.41;60.41;100849.38;4339190;33;20043;-90
2022/10/18 10:40:05;;;;;;;;;;;;;;;22.40;60.41;100845.03;4335454;33;20010;-90
2022/10/18 10:42:31;;;;;;;;;;;;;;;22.53;60.41;100843.31;4335553;33;19980;-90
2022/10/18 10:44:56;;;;;;;;;;;;;;;22.56;60.40;100835.12;4334817;33;27095;-90
2022/10/18 10:47:27;;;;;;;;;;;;;;;22.58;60.41;100833.22;4334926;33;20790;-90
2022/10/18 10:49:52;;;;;;;;;;;;;;;22.69;60.42;100827.22;4335472;33;20050;-90
2022/10/18 10:52:19;;;;;;;;;;;;;;;22.77;60.42;100819.63;4334982;33;19996;-90
2022/10/18 10:54:44;;;;;;;;;;;;;;;22.82;60.43;100822.00;4335426;33;20419;-89
2022/10/18 10:57:11;;;;;;;;;;;;;;;22.80;60.43;100813.25;4335260;32;19980;-90
2022/10/18 10:59:41;;;;;;;;;;;;;;;22.83;60.43;100826.34;4335303;33;20003;-89
2022/10/18 11:02:16;;;;;;;;;;;;;;;23.00;60.44;100817.28;4335277;33;20334;-90
2022/10/18 11:04:41;;;;;;;;;;;;;;;22.91;60.43;100813.41;4348789;33;19975;-90
2022/10/18 11:07:19;;;;;;;;;;;;;;;23.13;60.45;100803.06;4334757;33;20274;-90
2022/10/18 11:09:47;;;;;;;;;;;;;;;23.17;60.45;100809.00;4348715;33;20302;-90
2022/10/18 11:12:15;;;;;;;;;;;;;;;23.19;60.46;100802.66;4335378;33;19986;-90
2022/10/18 11:14:41;;;;;;;;;;;;;;;23.18;60.46;100800.94;4322705;33;20002;-90
2022/10/18 11:17:15;;;;;;;;;;;;;;;23.02;60.44;100796.78;4335117;33;20043;-90
2022/10/18 11:20:00;;;;;;;;;;;;;;;23.20;60.45;100799.06;4348460;33;19999;-90
2022/10/18 11:22:25;;;;;;;;;;;;;;;23.19;60.45;100786.72;4335244;33;20662;-90
2022/10/18 11:24:51;;;;;;;;;;;;;;;23.27;60.46;100781.72;4335304;33;19987;-90
2022/10/18 11:27:24;;;;;;;;;;;;;;;23.38;60.46;100790.75;4335269;33;20027;-90
2022/10/18 11:29:53;;;;;;;;;;;;;;;23.40;60.46;100784.38;4322978;33;20003;-89
2022/10/18 11:32:21;;;;;;;;;;;;;;;23.54;60.47;100789.59;4348558;33;20313;-90
2022/10/18 11:34:56;;;;;;;;;;;;;;;23.47;60.46;100771.53;4335033;33;19984;-90
2022/10/18 11:37:25;;;;;;;;;;;;;;;23.55;60.47;100772.69;4335201;33;19991;-90
2022/10/18 11:40:02;;;;;;;;;;;;;;;23.46;60.46;100760.06;4334712;33;20368;-91
2022/10/18 11:42:40;;;;;;;;;;;;;;;23.52;60.47;100759.63;4348390;33;19991;-89
2022/10/18 11:45:05;;;;;;;;;;;;;;;23.55;60.47;100754.09;4334734;33;20532;-91
2022/10/18 11:47:42;;;;;;;;;;;;;;;23.52;60.47;100756.97;4335102;33;19996;-90
2022/10/18 11:50:17;;;;;;;;;;;;;;;23.53;60.47;100749.84;4335802;33;20596;-89
2022/10/18 11:52:45;;;;;;;;;;;;;;;23.68;60.48;100745.31;4335750;33;20396;-89
2022/10/18 11:55:10;;;;;;;;;;;;;;;23.83;60.49;100744.19;4336356;33;19995;-89
2022/10/18 11:57:39;;;;;;;;;;;;;;;23.81;60.49;100743.47;4340720;32;20010;-91
2022/10/18 12:00:14;;;;;;;;;;;;;;;23.78;60.48;100738.37;4344682;32;19991;-89
2022/10/18 12:02:55;;;;;;;;;;;;;;;23.74;60.48;100731.56;4335934;33;20003;-89
2022/10/18 12:05:20;;;;;;;;;;;;;;;23.70;60.48;100725.63;4347829;33;19987;-90
2022/10/18 12:08:02;;;;;;;;;;;;;;;23.71;60.47;100722.00;4334478;33;20158;-89
2022/10/18 12:10:27;;;;;;;;;;;;;;;23.77;60.48;100718.06;4334481;33;20003;-91
2022/10/18 12:12:57;;;;;;;;;;;;;;;23.68;60.49;100714.25;4334347;33;19993;-91
2022/10/18 12:15:23;;;;;;;;;;;;;;;23.69;60.48;100715.97;4334564;33;19979;-89
2022/10/18 12:17:56;;;;;;;;;;;;;;;23.65;60.47;100711.78;4322152;33;19987;-89
2022/10/18 12:20:35;;;;;;;;;;;;;;;23.83;60.49;100707.81;4336533;33;19999;-90
2022/10/18 12:23:03;;;;;;;;;;;;;;;23.84;60.49;100704.19;4336643;33;19971;-89
2022/10/18 12:25:29;;;;;;;;;;;;;;;23.77;60.49;100699.44;4336462;33;19988;-90
2022/10/18 12:27:56;;;;;;;;;;;;;;;23.68;60.48;100693.00;4336658;33;20010;-89
2022/10/18 12:30:21;;;;;;;;;;;;;;;23.79;60.48;100695.72;4336458;33;20502;-89
2022/10/18 12:32:46;;;;;;;;;;;;;;;23.75;60.49;100691.59;4349934;33;20012;-89
2022/10/18 12:35:13;;;;;;;;;;;;;;;23.72;60.48;100688.31;4336259;33;20041;-90
2022/10/18 12:37:56;;;;;;;;;;;;;;;23.73;60.49;100680.22;4336539;33;20001;-90
2022/10/18 12:40:39;;;;;;;;;;;;;;;23.71;60.48;100681.28;4336497;33;20056;-89
2022/10/18 12:43:08;;;;;;;;;;;;;;;23.72;60.48;100680.31;4336410;33;20321;-89